createdAt,value
2018-11-29T06:16:31.351Z,-0.60
2018-11-29T06:19:01.987Z,-0.60
2018-11-29T06:21:32.878Z,-0.70
2018-11-29T06:24:14.571Z,-0.70
2018-11-29T06:26:46.140Z,-0.60
2018-11-29T06:34:49.692Z,-0.60
2018-11-29T06:37:46.513Z,-0.60
2018-11-29T06:40:40.640Z,-0.50
2018-11-29T06:43:11.599Z,-0.50
2018-11-29T06:45:43.057Z,-0.60
2018-11-29T06:48:14.428Z,-0.60
2018-11-29T06:53:51.625Z,-0.50
2018-11-29T06:56:22.849Z,-0.50
2018-11-29T06:58:53.178Z,-0.50
2018-11-29T07:01:24.277Z,-0.60
2018-11-29T07:03:55.504Z,-0.50
2018-11-29T07:06:25.201Z,-0.50
2018-11-29T07:08:55.988Z,-0.50
2018-11-29T07:11:27.208Z,-0.40
2018-11-29T07:13:57.866Z,-0.50
2018-11-29T07:16:28.722Z,-0.40
2018-11-29T07:18:58.693Z,-0.30
2018-11-29T07:21:54.937Z,-0.30
2018-11-29T07:24:26.891Z,-0.40
2018-11-29T07:26:57.779Z,-0.40
2018-11-29T07:29:26.918Z,-0.40
2018-11-29T07:31:56.279Z,-0.50
2018-11-29T07:34:27.871Z,-0.30
2018-11-29T07:36:58.365Z,-0.30
2018-11-29T07:39:28.350Z,-0.20
2018-11-29T07:41:58.913Z,-0.10
2018-11-29T07:44:28.942Z,0.00
2018-11-29T07:46:58.970Z,0.00
2018-11-29T07:49:29.895Z,0.10
2018-11-29T07:51:59.756Z,0.10
2018-11-29T07:54:33.491Z,0.10
2018-11-29T07:57:04.533Z,0.10
2018-11-29T07:59:35.573Z,0.20
2018-11-29T08:02:06.207Z,0.20
2018-11-29T08:04:37.065Z,0.10
2018-11-29T08:07:08.185Z,0.20
2018-11-29T08:09:39.043Z,0.20
2018-11-29T08:12:08.917Z,0.30
2018-11-29T08:14:38.961Z,0.30
2018-11-29T08:17:09.642Z,0.30
2018-11-29T08:19:40.527Z,0.30
2018-11-29T08:22:11.394Z,0.40
2018-11-29T08:24:42.302Z,0.40
2018-11-29T08:27:12.503Z,0.30
2018-11-29T08:29:43.901Z,0.40
2018-11-29T08:32:14.305Z,0.40
2018-11-29T08:34:46.152Z,0.40
2018-11-29T08:37:16.153Z,0.50
2018-11-29T08:39:46.742Z,0.60
2018-11-29T08:42:16.827Z,0.80
2018-11-29T08:44:45.902Z,0.90
2018-11-29T08:47:15.749Z,1.10
2018-11-29T08:49:46.379Z,1.30
2018-11-29T08:52:16.484Z,1.40
2018-11-29T08:54:46.465Z,1.50
2018-11-29T08:57:17.235Z,1.50
2018-11-29T08:59:47.048Z,1.70
2018-11-29T09:02:17.170Z,1.90
2018-11-29T09:04:47.819Z,2.00
2018-11-29T09:07:17.659Z,2.10
2018-11-29T09:09:47.897Z,2.00
2018-11-29T09:12:17.798Z,2.00
2018-11-29T09:14:48.693Z,2.00
2018-11-29T09:17:18.619Z,1.90
2018-11-29T09:19:50.126Z,1.90
2018-11-29T09:22:20.983Z,2.00
2018-11-29T09:24:51.330Z,1.60
2018-11-29T09:27:22.233Z,1.70
2018-11-29T09:29:51.750Z,1.90
2018-11-29T09:32:22.082Z,1.90
2018-11-29T09:34:53.005Z,1.70
2018-11-29T09:37:23.798Z,1.50
2018-11-29T09:39:53.822Z,1.50
2018-11-29T09:42:23.726Z,1.50
2018-11-29T09:44:53.607Z,1.20
2018-11-29T09:47:24.462Z,0.70
2018-11-29T09:49:54.436Z,0.50
2018-11-29T09:52:24.339Z,0.60
2018-11-29T09:54:54.260Z,0.80
2018-11-29T09:57:25.043Z,0.80
2018-11-29T09:59:55.792Z,0.90
2018-11-29T10:02:25.978Z,0.90
2018-11-29T10:04:57.939Z,0.90
2018-11-29T10:07:28.609Z,1.00
2018-11-29T10:09:58.741Z,0.90
2018-11-29T10:12:29.542Z,0.90
2018-11-29T10:15:00.561Z,1.00
2018-11-29T10:17:30.450Z,0.90
2018-11-29T10:20:01.381Z,1.00
2018-11-29T10:22:31.271Z,1.00
2018-11-29T10:25:00.775Z,0.90
2018-11-29T10:27:31.587Z,0.90
2018-11-29T10:30:01.477Z,0.90
2018-11-29T10:32:31.850Z,1.00
2018-11-29T10:35:01.829Z,1.10
2018-11-29T10:37:32.721Z,1.10
2018-11-29T10:40:02.962Z,1.20
2018-11-29T10:42:33.155Z,1.10
2018-11-29T10:45:03.506Z,1.00
2018-11-29T10:47:34.418Z,1.20
2018-11-29T10:50:04.354Z,1.30
2018-11-29T10:52:35.106Z,1.30
2018-11-29T10:55:06.217Z,1.30
2018-11-29T10:57:37.071Z,1.30
2018-11-29T11:00:29.493Z,1.00
2018-11-29T11:03:34.384Z,1.10
2018-11-29T11:06:05.614Z,1.20
2018-11-29T11:08:36.409Z,1.10
2018-11-29T11:11:09.310Z,1.20
2018-11-29T11:13:41.630Z,1.20
2018-11-29T11:16:14.357Z,1.20
2018-11-29T11:18:45.244Z,1.10
2018-11-29T11:21:15.896Z,1.30
2018-11-29T11:23:47.457Z,1.30
2018-11-29T11:26:18.750Z,1.50
2018-11-29T11:28:56.156Z,1.50
2018-11-29T11:34:37.181Z,1.50
2018-11-29T11:37:08.179Z,1.30
2018-11-29T11:39:39.433Z,1.40
2018-11-29T11:42:10.674Z,1.40
2018-11-29T11:44:41.033Z,1.40
2018-11-29T11:47:12.436Z,1.40
2018-11-29T11:49:43.666Z,1.60
2018-11-29T11:52:13.862Z,1.20
2018-11-29T11:54:44.755Z,1.20
2018-11-29T11:57:15.593Z,1.30
2018-11-29T11:59:47.034Z,1.10
2018-11-29T12:02:17.539Z,0.90
2018-11-29T12:04:48.682Z,0.80
2018-11-29T12:07:18.383Z,0.90
2018-11-29T12:09:49.234Z,0.90
2018-11-29T12:12:20.460Z,0.80
2018-11-29T12:14:51.165Z,0.80
2018-11-29T12:17:21.099Z,0.80
2018-11-29T12:19:51.329Z,0.60
2018-11-29T12:22:22.747Z,0.70
2018-11-29T12:24:52.853Z,0.70
2018-11-29T12:27:23.781Z,0.70
2018-11-29T12:29:53.695Z,0.70
2018-11-29T12:32:23.574Z,0.70
2018-11-29T12:34:54.390Z,0.80
2018-11-29T12:37:26.151Z,0.70
2018-11-29T12:39:56.347Z,0.70
2018-11-29T12:42:27.316Z,0.70
2018-11-29T12:44:58.126Z,0.70
2018-11-29T12:47:29.222Z,0.60
2018-11-29T12:49:59.042Z,0.60
2018-11-29T12:52:31.778Z,0.50
2018-11-29T12:55:02.830Z,0.50
2018-11-29T12:57:33.861Z,0.50
2018-11-29T13:00:04.779Z,0.50
2018-11-29T13:02:35.679Z,0.40
2018-11-29T13:05:08.346Z,0.40
2018-11-29T13:07:38.555Z,0.50
2018-11-29T13:10:09.388Z,0.50
2018-11-29T13:12:40.410Z,0.50
2018-11-29T13:15:13.565Z,0.50
2018-11-29T13:17:43.297Z,0.40
2018-11-29T13:20:14.822Z,0.50
2018-11-29T13:22:45.125Z,0.50
2018-11-29T13:25:17.051Z,0.50
2018-11-29T13:27:47.887Z,0.40
2018-11-29T13:30:19.905Z,0.30
2018-11-29T13:32:53.764Z,0.30
2018-11-29T13:35:27.592Z,0.40
2018-11-29T13:37:59.682Z,0.40
2018-11-29T13:40:31.102Z,0.40
2018-11-29T13:43:01.622Z,0.40
2018-11-29T13:45:32.855Z,0.30
2018-11-29T13:48:03.467Z,0.30
2018-11-29T13:50:33.382Z,0.30
2018-11-29T13:53:03.323Z,0.20
2018-11-29T13:55:34.233Z,0.30
2018-11-29T13:58:04.130Z,0.30
2018-11-29T14:00:35.367Z,0.30
2018-11-29T14:03:11.671Z,0.30
2018-11-29T14:05:41.949Z,0.20
2018-11-29T14:08:12.603Z,0.20
2018-11-29T14:10:43.829Z,0.00
2018-11-29T14:13:15.084Z,0.00
2018-11-29T14:15:45.682Z,0.10
2018-11-29T14:18:15.600Z,0.00
2018-11-29T14:20:46.518Z,0.00
2018-11-29T14:23:18.415Z,0.00
2018-11-29T14:25:49.487Z,-0.10
2018-11-29T14:28:20.212Z,-0.20
2018-11-29T14:30:50.346Z,-0.10
2018-11-29T14:33:21.072Z,-0.10
2018-11-29T14:35:52.121Z,-0.10
2018-11-29T14:38:22.960Z,-0.20
2018-11-29T14:40:53.960Z,-0.30
2018-11-29T14:43:24.793Z,-0.30
2018-11-29T14:45:56.030Z,-0.30
2018-11-29T14:48:26.705Z,-0.40
2018-11-29T14:51:02.379Z,-0.40
2018-11-29T14:53:28.554Z,-0.40
2018-11-29T14:55:59.807Z,-0.40
2018-11-29T14:58:31.261Z,-0.40
2018-11-29T15:01:03.330Z,-0.40
2018-11-29T15:03:34.289Z,-0.40
2018-11-29T15:06:05.240Z,-0.40
2018-11-29T15:08:38.551Z,-0.40
2018-11-29T15:11:09.850Z,-0.40
2018-11-29T15:13:40.021Z,-0.40
2018-11-29T15:16:09.933Z,-0.40
2018-11-29T15:18:48.859Z,-0.40
2018-11-29T15:21:19.890Z,-0.40
2018-11-29T15:23:52.883Z,-0.40
2018-11-29T15:26:23.774Z,-0.40
2018-11-29T15:28:54.440Z,-0.40
2018-11-29T15:31:25.626Z,-0.40
2018-11-29T15:33:55.512Z,-0.40
2018-11-29T15:36:26.401Z,-0.40
2018-11-29T15:38:57.252Z,-0.40
2018-11-29T15:41:28.270Z,-0.40
2018-11-29T15:43:58.911Z,-0.40
2018-11-29T15:46:29.882Z,-0.40
2018-11-29T15:49:00.239Z,-0.50
2018-11-29T15:51:29.921Z,-0.40
2018-11-29T15:54:00.855Z,-0.40
2018-11-29T15:56:31.405Z,-0.50
2018-11-29T15:59:02.614Z,-0.50
2018-11-29T16:01:32.576Z,-0.40
2018-11-29T16:04:03.798Z,-0.40
2018-11-29T16:06:37.363Z,-0.40
2018-11-29T16:09:31.679Z,-0.30
2018-11-29T16:12:01.547Z,-0.40
2018-11-29T16:14:33.446Z,-0.50
2018-11-29T16:17:04.341Z,-0.40
2018-11-29T16:19:35.574Z,-0.40
2018-11-29T16:22:07.107Z,-0.40
2018-11-29T16:24:38.010Z,-0.50
2018-11-29T16:27:08.063Z,-0.50
2018-11-29T16:29:38.886Z,-0.50
2018-11-29T16:32:09.477Z,-0.50
2018-11-29T16:34:38.548Z,-0.40
2018-11-29T16:37:08.587Z,-0.40
2018-11-29T16:39:38.005Z,-0.50
2018-11-29T16:42:09.216Z,-0.50
2018-11-29T16:44:40.080Z,-0.50
2018-11-29T16:47:09.300Z,-0.50
2018-11-29T16:49:40.531Z,-0.50
2018-11-29T16:52:10.134Z,-0.50
2018-11-29T16:54:39.890Z,-0.50
2018-11-29T16:57:09.805Z,-0.50
2018-11-29T16:59:40.745Z,-0.50
2018-11-29T17:02:11.686Z,-0.50
2018-11-29T17:04:42.682Z,-0.50
2018-11-29T17:07:15.429Z,-0.50
2018-11-29T17:09:46.665Z,-0.50
2018-11-29T17:12:20.807Z,-0.40
2018-11-29T17:14:52.315Z,-0.40
2018-11-29T17:17:23.205Z,-0.50
2018-11-29T17:19:54.114Z,-0.40
2018-11-29T17:22:24.089Z,-0.50
2018-11-29T17:24:54.720Z,-0.60
2018-11-29T17:27:25.623Z,-0.60
2018-11-29T17:29:55.779Z,-0.50
2018-11-29T17:32:27.191Z,-0.50
2018-11-29T17:34:57.593Z,-0.60
2018-11-29T17:37:28.117Z,-0.60
2018-11-29T17:39:59.174Z,-0.60
2018-11-29T17:42:29.289Z,-0.60
2018-11-29T17:45:00.126Z,-0.60
2018-11-29T17:47:31.061Z,-0.60
2018-11-29T17:50:01.993Z,-0.60
2018-11-29T17:52:31.840Z,-0.50
2018-11-29T17:55:03.071Z,-0.60
2018-11-29T17:57:34.598Z,-0.60
2018-11-29T18:00:07.902Z,-0.60
2018-11-29T18:02:39.118Z,-0.70
2018-11-29T18:05:44.842Z,-0.70
2018-11-29T18:11:51.203Z,-0.60
2018-11-29T18:14:22.566Z,-0.60
2018-11-29T18:49:24.946Z,-0.80
2018-11-29T18:51:54.814Z,-0.80
2018-11-29T18:54:26.620Z,-0.90
2018-11-29T18:56:57.977Z,-0.90
2018-11-29T18:59:29.570Z,-0.90
2018-11-29T19:02:00.294Z,-0.90
2018-11-29T19:04:31.672Z,-0.90
2018-11-29T19:07:02.920Z,-0.90
2018-11-29T19:09:34.005Z,-0.80
2018-11-29T19:12:06.075Z,-0.90
2018-11-29T19:14:36.971Z,-1.00
2018-11-29T19:17:09.607Z,-0.90
2018-11-29T19:19:40.775Z,-0.90
2018-11-29T19:22:10.663Z,-1.00
2018-11-29T19:24:41.550Z,-1.00
2018-11-29T19:27:12.990Z,-1.00
2018-11-29T19:29:44.086Z,-1.00
2018-11-29T19:32:15.724Z,-1.00
2018-11-29T19:34:47.526Z,-1.00
2018-11-29T19:37:19.107Z,-1.10
2018-11-29T19:39:52.621Z,-1.10
2018-11-29T19:42:24.190Z,-1.10
2018-11-29T19:44:58.581Z,-1.20
2018-11-29T19:47:30.835Z,-1.10
2018-11-29T19:50:03.670Z,-1.10
2018-11-29T19:52:38.346Z,-1.20
2018-11-29T19:55:31.655Z,-1.10
2018-11-29T20:01:18.959Z,-1.20
2018-11-29T20:04:24.266Z,-1.30
2018-11-29T20:10:35.274Z,-1.30
2018-11-29T20:16:49.006Z,-1.30
2018-11-29T20:25:37.644Z,-1.30
